createdAt,value
2022-08-25T00:04:18.406Z,98667.41
2022-08-25T00:09:23.538Z,98666.25
2022-08-25T00:14:29.501Z,98669.63
2022-08-25T00:19:34.976Z,98657.63
2022-08-25T00:24:36.912Z,98666.13
2022-08-25T00:29:39.187Z,98663.56
2022-08-25T00:34:41.070Z,98667.13
2022-08-25T00:39:42.959Z,98658.84
2022-08-25T00:51:47.571Z,98644.94
2022-08-25T00:56:51.454Z,98646.25
2022-08-25T01:01:54.936Z,98648.28
2022-08-25T01:06:58.444Z,98637.25
2022-08-25T01:12:01.266Z,98637.59
2022-08-25T01:17:03.829Z,98642.41
2022-08-25T01:22:05.958Z,98648.28
2022-08-25T01:27:08.288Z,98646.97
2022-08-25T01:32:13.472Z,98637.88
2022-08-25T01:37:16.749Z,98641.00
2022-08-25T01:42:47.208Z,98638.59
2022-08-25T01:47:49.103Z,98643.84
2022-08-25T01:53:15.507Z,98635.56
2022-08-25T01:58:25.246Z,98630.13
2022-08-25T02:03:28.205Z,98638.81
2022-08-25T02:08:30.146Z,98634.06
2022-08-25T02:13:32.781Z,98626.09
2022-08-25T02:18:35.254Z,98633.56
2022-08-25T02:23:37.507Z,98633.97
2022-08-25T02:28:40.127Z,98633.66
2022-08-25T02:33:42.396Z,98629.44
2022-08-25T02:38:44.838Z,98631.38
2022-08-25T02:43:48.680Z,98624.53
2022-08-25T02:48:52.997Z,98631.53
2022-08-25T02:53:54.881Z,98638.59
2022-08-25T02:58:57.351Z,98623.72
2022-08-25T03:04:01.879Z,98614.00
2022-08-25T03:09:04.546Z,98620.03
2022-08-25T03:14:07.918Z,98601.16
2022-08-25T03:19:10.120Z,98608.19
2022-08-25T03:24:12.174Z,98606.75
2022-08-25T03:29:14.468Z,98606.47
2022-08-25T03:34:18.219Z,98599.41
2022-08-25T03:39:23.056Z,98593.53
2022-08-25T03:44:25.185Z,98602.34
2022-08-25T03:49:27.080Z,98601.72
2022-08-25T03:54:29.698Z,98595.38
2022-08-25T03:59:31.562Z,98604.19
2022-08-25T04:04:33.628Z,98601.13
2022-08-25T04:09:36.971Z,98596.22
2022-08-25T04:14:38.939Z,98608.44
2022-08-25T04:19:40.986Z,98603.34
2022-08-25T04:24:42.871Z,98597.06
2022-08-25T04:29:45.031Z,98600.91
2022-08-25T04:34:46.920Z,98597.78
2022-08-25T04:39:48.859Z,98594.50
2022-08-25T04:44:50.920Z,98590.25
2022-08-25T04:49:53.265Z,98590.72
2022-08-25T04:54:55.516Z,98587.56
2022-08-25T04:59:57.517Z,98589.88
2022-08-25T05:04:59.526Z,98605.44
2022-08-25T05:10:01.451Z,98610.69
2022-08-25T05:15:23.992Z,98607.81
2022-08-25T05:20:26.726Z,98612.69
2022-08-25T05:25:28.646Z,98623.50
2022-08-25T05:30:30.620Z,98619.47
2022-08-25T05:35:32.784Z,98619.22
2022-08-25T05:40:34.733Z,98617.03
2022-08-25T05:45:38.162Z,98610.56
2022-08-25T05:50:40.138Z,98614.69
2022-08-25T05:55:45.139Z,98607.44
2022-08-25T06:00:47.176Z,98608.72
2022-08-25T06:05:49.855Z,98599.75
2022-08-25T06:10:54.868Z,98595.19
2022-08-25T06:16:00.712Z,98604.66
2022-08-25T06:21:13.379Z,98601.19
2022-08-25T06:26:21.126Z,98615.22
2022-08-25T06:31:23.648Z,98603.81
2022-08-25T06:36:25.565Z,98596.06
2022-08-25T06:41:36.642Z,98597.28
2022-08-25T06:46:39.422Z,98599.00
2022-08-25T06:51:42.413Z,98599.28
2022-08-25T06:56:44.337Z,98610.22
2022-08-25T07:01:46.362Z,98593.03
2022-08-25T07:06:51.705Z,98590.78
2022-08-25T07:11:54.318Z,98597.81
2022-08-25T07:16:56.266Z,98596.06
2022-08-25T07:21:58.231Z,98593.72
2022-08-25T07:27:00.318Z,98593.38
2022-08-25T07:32:02.678Z,98597.91
2022-08-25T07:37:05.284Z,98593.66
2022-08-25T07:42:12.102Z,98594.44
2022-08-25T07:47:16.081Z,98603.09
2022-08-25T07:52:17.980Z,98600.22
2022-08-25T07:57:22.258Z,98594.53
2022-08-25T08:02:24.757Z,98605.75
2022-08-25T08:07:43.295Z,98597.03
2022-08-25T08:12:46.168Z,98601.66
2022-08-25T08:17:48.065Z,98605.06
2022-08-25T08:22:50.165Z,98604.38
2022-08-25T08:27:54.880Z,98602.50
2022-08-25T08:33:11.223Z,98597.34
2022-08-25T08:38:20.813Z,98592.47
2022-08-25T08:43:25.089Z,98583.56
2022-08-25T08:48:38.854Z,98584.31
2022-08-25T08:53:43.898Z,98586.63
2022-08-25T08:59:09.709Z,98572.50
2022-08-25T09:04:26.516Z,98568.78
2022-08-25T09:09:35.957Z,98568.19
2022-08-25T09:14:53.614Z,98574.41
2022-08-25T09:20:25.041Z,98555.47
2022-08-25T09:25:58.362Z,98543.59
2022-08-25T09:31:28.824Z,98542.81
2022-08-25T09:36:37.492Z,98532.78
2022-08-25T09:41:51.338Z,98535.44
2022-08-25T09:47:02.409Z,98530.63
2022-08-25T09:52:41.417Z,98525.03
2022-08-25T09:57:43.600Z,98515.97
2022-08-25T10:03:07.092Z,98503.16
2022-08-25T10:08:24.962Z,98509.28
2022-08-25T10:13:42.216Z,98486.59
2022-08-25T10:18:44.159Z,98497.66
2022-08-25T10:23:52.637Z,98479.34
2022-08-25T10:29:06.697Z,98472.63
2022-08-25T10:34:44.413Z,98464.44
2022-08-25T10:39:55.879Z,98456.13
2022-08-25T10:45:30.031Z,98461.53
2022-08-25T10:50:49.031Z,98458.97
2022-08-25T10:56:23.191Z,98433.91
2022-08-25T11:01:42.964Z,98443.53
2022-08-25T11:07:07.905Z,98439.94
2022-08-25T11:12:27.004Z,98429.34
2022-08-25T11:17:39.844Z,98423.75
2022-08-25T11:23:07.029Z,98419.19
2022-08-25T11:28:19.007Z,98411.25
2022-08-25T11:33:24.864Z,98413.63
2022-08-25T11:39:15.809Z,98406.13
2022-08-25T11:44:26.828Z,98402.84
2022-08-25T11:49:39.914Z,98410.13
2022-08-25T11:54:45.793Z,98392.13
2022-08-25T11:59:50.811Z,98389.75
2022-08-25T12:04:55.483Z,98404.44
2022-08-25T12:10:03.485Z,98381.88
2022-08-25T12:15:23.756Z,98369.84
2022-08-25T12:20:55.035Z,98371.25
2022-08-25T12:26:01.393Z,98362.28
2022-08-25T12:31:31.759Z,98361.00
2022-08-25T12:36:34.918Z,98369.63
2022-08-25T12:41:57.203Z,98362.03
2022-08-25T12:47:27.308Z,98352.63
2022-08-25T12:52:31.084Z,98350.91
2022-08-25T12:57:57.770Z,98339.41
2022-08-25T13:03:27.748Z,98338.25
2022-08-25T13:09:08.248Z,98329.41
2022-08-25T13:14:10.436Z,98342.53
2022-08-25T13:19:19.902Z,98321.28
2022-08-25T13:24:27.103Z,98327.50
2022-08-25T13:29:36.418Z,98300.53
2022-08-25T13:34:44.038Z,98298.50
2022-08-25T13:39:56.350Z,98304.66
2022-08-25T13:44:58.763Z,98305.22
2022-08-25T13:50:20.567Z,98286.91
2022-08-25T13:55:50.698Z,98282.06
2022-08-25T14:01:49.391Z,98277.75
2022-08-25T14:07:13.231Z,98281.06
2022-08-25T14:12:31.111Z,98283.53
2022-08-25T14:17:40.097Z,98278.31
2022-08-25T14:22:42.526Z,98277.81
2022-08-25T14:28:06.811Z,98290.75
2022-08-25T14:33:08.941Z,98274.22
2022-08-25T14:38:12.045Z,98264.94
2022-08-25T14:43:15.814Z,98258.00
2022-08-25T14:48:49.021Z,98240.53
2022-08-25T14:53:56.920Z,98245.09
2022-08-25T14:59:01.544Z,98247.44
2022-08-25T15:04:10.215Z,98231.63
2022-08-25T15:09:17.186Z,98233.69
2022-08-25T15:14:28.420Z,98243.56
2022-08-25T15:19:35.405Z,98237.59
2022-08-25T15:24:37.898Z,98247.97
2022-08-25T15:29:41.898Z,98247.16
2022-08-25T15:34:44.022Z,98238.22
2022-08-25T15:39:47.805Z,98231.63
2022-08-25T15:44:53.051Z,98234.91
2022-08-25T15:50:07.064Z,98221.69
2022-08-25T15:55:10.660Z,98223.13
2022-08-25T16:00:19.329Z,98205.72
2022-08-25T16:05:26.120Z,98218.25
2022-08-25T16:10:33.340Z,98211.53
2022-08-25T16:15:39.412Z,98210.88
2022-08-25T16:20:47.820Z,98201.09
2022-08-25T16:25:49.905Z,98211.03
2022-08-25T16:30:54.456Z,98205.25
2022-08-25T16:36:07.164Z,98196.03
2022-08-25T16:41:11.535Z,98200.13
2022-08-25T16:46:16.370Z,98194.47
2022-08-25T16:51:22.639Z,98197.66
2022-08-25T16:56:28.966Z,98202.31
2022-08-25T17:01:34.370Z,98199.50
2022-08-25T17:06:39.838Z,98202.16
2022-08-25T17:11:48.960Z,98207.53
2022-08-25T17:16:54.879Z,98216.03
2022-08-25T17:21:58.914Z,98211.78
2022-08-25T17:27:02.222Z,98214.16
2022-08-25T17:32:05.358Z,98214.25
2022-08-25T17:37:08.192Z,98223.31
2022-08-25T17:42:10.510Z,98239.94
2022-08-25T17:47:12.716Z,98248.94
2022-08-25T17:52:17.269Z,98247.50
2022-08-25T17:57:19.672Z,98240.31
2022-08-25T18:02:21.535Z,98248.94
2022-08-25T18:07:24.128Z,98244.94
2022-08-25T18:12:27.500Z,98251.53
2022-08-25T18:17:29.616Z,98254.34
2022-08-25T18:22:32.643Z,98257.19
2022-08-25T18:27:35.848Z,98258.00
2022-08-25T18:32:38.444Z,98257.09
2022-08-25T18:38:00.162Z,98260.03
2022-08-25T18:43:05.801Z,98257.56
2022-08-25T18:48:08.901Z,98259.47
2022-08-25T18:53:11.751Z,98263.38
2022-08-25T18:58:14.703Z,98254.56
2022-08-25T19:03:20.007Z,98255.66
2022-08-25T19:08:22.153Z,98264.66
2022-08-25T19:13:25.601Z,98267.59
2022-08-25T19:18:29.175Z,98273.03
2022-08-25T19:23:32.992Z,98259.72
2022-08-25T19:28:36.628Z,98256.00
2022-08-25T19:33:44.858Z,98259.41
2022-08-25T19:38:47.709Z,98263.28
2022-08-25T19:43:56.126Z,98256.81
2022-08-25T19:49:01.504Z,98269.78
2022-08-25T19:54:09.152Z,98258.34
2022-08-25T19:59:12.405Z,98269.19
2022-08-25T20:04:14.581Z,98269.78
2022-08-25T20:09:35.633Z,98267.59
2022-08-25T20:14:41.192Z,98265.41
2022-08-25T20:19:43.395Z,98256.13
2022-08-25T20:24:51.119Z,98256.56
2022-08-25T20:29:58.425Z,98255.59
2022-08-25T20:35:01.874Z,98250.50
2022-08-25T20:40:05.139Z,98254.34
2022-08-25T20:45:08.421Z,98248.94
2022-08-25T20:50:11.563Z,98257.25
2022-08-25T20:55:13.980Z,98251.81
2022-08-25T21:00:18.047Z,98245.13
2022-08-25T21:05:20.407Z,98247.88
2022-08-25T21:10:22.569Z,98248.47
2022-08-25T21:15:26.290Z,98238.84
2022-08-25T21:20:29.510Z,98248.81
2022-08-25T21:25:31.381Z,98251.25
2022-08-25T21:30:33.542Z,98243.66
2022-08-25T21:35:39.976Z,98237.72
2022-08-25T21:40:44.833Z,98239.19
2022-08-25T21:45:47.259Z,98243.28
2022-08-25T21:50:49.201Z,98249.59
2022-08-25T21:55:51.124Z,98236.06
2022-08-25T22:00:53.052Z,98236.94
2022-08-25T22:05:55.397Z,98244.97
2022-08-25T22:10:57.434Z,98234.91
2022-08-25T22:15:59.638Z,98232.50
2022-08-25T22:21:07.220Z,98231.84
2022-08-25T22:26:10.937Z,98224.19
2022-08-25T22:31:14.436Z,98215.19
2022-08-25T22:36:26.593Z,98210.91
2022-08-25T22:41:31.654Z,98203.94
2022-08-25T22:46:35.027Z,98210.19
2022-08-25T22:51:37.900Z,98196.53
2022-08-25T22:56:39.895Z,98198.47
2022-08-25T23:01:43.841Z,98189.69
2022-08-25T23:06:46.485Z,98192.78
2022-08-25T23:11:51.244Z,98190.00
2022-08-25T23:16:53.577Z,98191.81
2022-08-25T23:22:24.837Z,98182.63
2022-08-25T23:27:28.970Z,98168.81
2022-08-25T23:32:30.900Z,98169.41
2022-08-25T23:37:33.736Z,98166.28
2022-08-25T23:42:36.333Z,98167.84
2022-08-25T23:47:39.304Z,98165.66
2022-08-25T23:52:41.319Z,98162.13
2022-08-25T23:57:43.245Z,98167.34
